sensor_id;sensor_type;location;lat;lon;timestamp;P1;durP1;ratioP1;P2;durP2;ratioP2
23384;SDS011;11865;45.394;10.978;2023-04-06T00:01:23;25.73;;;9.68;;
23384;SDS011;11865;45.394;10.978;2023-04-06T00:03:51;27.08;;;9.70;;
23384;SDS011;11865;45.394;10.978;2023-04-06T00:06:19;22.85;;;9.80;;
23384;SDS011;11865;45.394;10.978;2023-04-06T00:08:47;21.00;;;8.05;;
23384;SDS011;11865;45.394;10.978;2023-04-06T00:11:14;16.55;;;7.88;;
23384;SDS011;11865;45.394;10.978;2023-04-06T00:13:43;20.38;;;7.95;;
23384;SDS011;11865;45.394;10.978;2023-04-06T00:16:11;20.25;;;8.63;;
23384;SDS011;11865;45.394;10.978;2023-04-06T00:18:39;21.48;;;8.30;;
23384;SDS011;11865;45.394;10.978;2023-04-06T00:21:07;20.08;;;8.77;;
23384;SDS011;11865;45.394;10.978;2023-04-06T00:23:34;12.10;;;7.72;;
23384;SDS011;11865;45.394;10.978;2023-04-06T00:26:02;17.85;;;8.07;;
23384;SDS011;11865;45.394;10.978;2023-04-06T00:28:29;15.43;;;7.40;;
23384;SDS011;11865;45.394;10.978;2023-04-06T00:30:57;13.60;;;8.02;;
23384;SDS011;11865;45.394;10.978;2023-04-06T00:33:25;15.57;;;8.23;;
23384;SDS011;11865;45.394;10.978;2023-04-06T00:35:52;13.65;;;8.18;;
23384;SDS011;11865;45.394;10.978;2023-04-06T00:38:21;18.15;;;8.00;;
23384;SDS011;11865;45.394;10.978;2023-04-06T00:40:49;14.80;;;7.63;;
23384;SDS011;11865;45.394;10.978;2023-04-06T00:43:17;14.25;;;8.10;;
23384;SDS011;11865;45.394;10.978;2023-04-06T00:45:44;13.85;;;7.38;;
23384;SDS011;11865;45.394;10.978;2023-04-06T00:48:12;14.65;;;7.43;;
23384;SDS011;11865;45.394;10.978;2023-04-06T00:50:40;15.13;;;7.90;;
23384;SDS011;11865;45.394;10.978;2023-04-06T00:53:07;17.95;;;7.57;;
23384;SDS011;11865;45.394;10.978;2023-04-06T00:55:35;12.07;;;7.65;;
23384;SDS011;11865;45.394;10.978;2023-04-06T00:58:03;14.55;;;8.13;;
23384;SDS011;11865;45.394;10.978;2023-04-06T01:00:39;14.88;;;8.40;;
23384;SDS011;11865;45.394;10.978;2023-04-06T01:03:09;15.85;;;8.15;;
23384;SDS011;11865;45.394;10.978;2023-04-06T01:08:17;15.23;;;7.32;;
23384;SDS011;11865;45.394;10.978;2023-04-06T01:10:45;12.50;;;7.72;;
23384;SDS011;11865;45.394;10.978;2023-04-06T01:13:25;18.02;;;8.20;;
23384;SDS011;11865;45.394;10.978;2023-04-06T01:15:55;13.98;;;7.68;;
23384;SDS011;11865;45.394;10.978;2023-04-06T01:18:31;14.40;;;8.85;;
23384;SDS011;11865;45.394;10.978;2023-04-06T01:21:12;14.68;;;7.93;;
23384;SDS011;11865;45.394;10.978;2023-04-06T01:24:02;13.23;;;7.88;;
23384;SDS011;11865;45.394;10.978;2023-04-06T01:26:41;13.95;;;7.95;;
23384;SDS011;11865;45.394;10.978;2023-04-06T01:29:11;14.45;;;8.57;;
23384;SDS011;11865;45.394;10.978;2023-04-06T01:31:39;12.23;;;7.85;;
23384;SDS011;11865;45.394;10.978;2023-04-06T01:34:06;16.25;;;8.00;;
23384;SDS011;11865;45.394;10.978;2023-04-06T01:36:34;14.45;;;8.75;;
23384;SDS011;11865;45.394;10.978;2023-04-06T01:39:18;15.15;;;8.02;;
23384;SDS011;11865;45.394;10.978;2023-04-06T01:41:46;16.40;;;8.38;;
23384;SDS011;11865;45.394;10.978;2023-04-06T01:44:18;21.30;;;8.40;;
23384;SDS011;11865;45.394;10.978;2023-04-06T01:46:52;15.07;;;8.05;;
23384;SDS011;11865;45.394;10.978;2023-04-06T01:49:20;14.43;;;8.77;;
23384;SDS011;11865;45.394;10.978;2023-04-06T01:51:52;20.48;;;8.75;;
23384;SDS011;11865;45.394;10.978;2023-04-06T01:54:21;13.95;;;8.00;;
23384;SDS011;11865;45.394;10.978;2023-04-06T01:57:07;16.13;;;8.57;;
23384;SDS011;11865;45.394;10.978;2023-04-06T01:59:57;16.25;;;8.23;;
23384;SDS011;11865;45.394;10.978;2023-04-06T02:02:39;13.73;;;7.73;;
23384;SDS011;11865;45.394;10.978;2023-04-06T02:05:13;14.23;;;8.05;;
23384;SDS011;11865;45.394;10.978;2023-04-06T02:07:41;15.45;;;8.30;;
23384;SDS011;11865;45.394;10.978;2023-04-06T02:10:13;14.30;;;8.37;;
23384;SDS011;11865;45.394;10.978;2023-04-06T02:12:43;13.68;;;7.93;;
23384;SDS011;11865;45.394;10.978;2023-04-06T02:15:17;15.50;;;8.23;;
23384;SDS011;11865;45.394;10.978;2023-04-06T02:17:44;12.95;;;8.13;;
23384;SDS011;11865;45.394;10.978;2023-04-06T02:20:12;12.38;;;7.75;;
23384;SDS011;11865;45.394;10.978;2023-04-06T02:22:40;16.90;;;8.38;;
23384;SDS011;11865;45.394;10.978;2023-04-06T02:25:07;12.02;;;7.72;;
23384;SDS011;11865;45.394;10.978;2023-04-06T02:27:35;17.45;;;8.45;;
23384;SDS011;11865;45.394;10.978;2023-04-06T02:30:03;15.23;;;8.50;;
23384;SDS011;11865;45.394;10.978;2023-04-06T02:32:32;17.83;;;8.10;;
23384;SDS011;11865;45.394;10.978;2023-04-06T02:35:00;12.23;;;7.95;;
23384;SDS011;11865;45.394;10.978;2023-04-06T02:37:29;20.13;;;8.07;;
23384;SDS011;11865;45.394;10.978;2023-04-06T02:39:58;13.95;;;8.40;;
23384;SDS011;11865;45.394;10.978;2023-04-06T02:42:27;13.02;;;7.88;;
23384;SDS011;11865;45.394;10.978;2023-04-06T02:44:55;11.98;;;7.40;;
23384;SDS011;11865;45.394;10.978;2023-04-06T02:47:26;14.32;;;8.23;;
23384;SDS011;11865;45.394;10.978;2023-04-06T02:49:54;15.18;;;8.00;;
23384;SDS011;11865;45.394;10.978;2023-04-06T02:52:21;15.75;;;7.60;;
23384;SDS011;11865;45.394;10.978;2023-04-06T02:54:49;16.42;;;8.15;;
23384;SDS011;11865;45.394;10.978;2023-04-06T02:57:24;16.23;;;8.15;;
23384;SDS011;11865;45.394;10.978;2023-04-06T02:59:51;13.80;;;7.88;;
23384;SDS011;11865;45.394;10.978;2023-04-06T03:02:25;11.73;;;7.32;;
23384;SDS011;11865;45.394;10.978;2023-04-06T03:05:00;13.85;;;8.00;;
23384;SDS011;11865;45.394;10.978;2023-04-06T03:07:34;11.35;;;7.15;;
23384;SDS011;11865;45.394;10.978;2023-04-06T03:10:02;18.55;;;8.35;;
23384;SDS011;11865;45.394;10.978;2023-04-06T03:12:31;20.17;;;7.57;;
23384;SDS011;11865;45.394;10.978;2023-04-06T03:15:21;13.07;;;7.72;;
23384;SDS011;11865;45.394;10.978;2023-04-06T03:17:59;10.75;;;7.75;;
23384;SDS011;11865;45.394;10.978;2023-04-06T03:20:36;12.40;;;7.63;;
23384;SDS011;11865;45.394;10.978;2023-04-06T03:23:03;12.30;;;7.53;;
23384;SDS011;11865;45.394;10.978;2023-04-06T03:25:35;12.82;;;7.60;;
23384;SDS011;11865;45.394;10.978;2023-04-06T03:28:05;13.80;;;7.95;;
23384;SDS011;11865;45.394;10.978;2023-04-06T03:30:38;14.85;;;7.93;;
23384;SDS011;11865;45.394;10.978;2023-04-06T03:33:05;13.95;;;7.78;;
23384;SDS011;11865;45.394;10.978;2023-04-06T03:35:40;12.10;;;7.45;;
23384;SDS011;11865;45.394;10.978;2023-04-06T03:38:08;15.63;;;8.52;;
23384;SDS011;11865;45.394;10.978;2023-04-06T03:40:35;15.38;;;7.80;;
23384;SDS011;11865;45.394;10.978;2023-04-06T03:43:03;12.88;;;7.65;;
23384;SDS011;11865;45.394;10.978;2023-04-06T03:45:34;15.13;;;8.30;;
23384;SDS011;11865;45.394;10.978;2023-04-06T03:48:02;13.50;;;8.55;;
23384;SDS011;11865;45.394;10.978;2023-04-06T03:50:33;13.50;;;8.27;;
23384;SDS011;11865;45.394;10.978;2023-04-06T03:53:00;16.77;;;8.27;;
23384;SDS011;11865;45.394;10.978;2023-04-06T03:55:30;14.57;;;8.02;;
23384;SDS011;11865;45.394;10.978;2023-04-06T03:57:58;17.02;;;8.18;;
23384;SDS011;11865;45.394;10.978;2023-04-06T04:00:26;15.35;;;8.68;;
23384;SDS011;11865;45.394;10.978;2023-04-06T04:02:54;17.33;;;8.65;;
23384;SDS011;11865;45.394;10.978;2023-04-06T04:05:22;12.63;;;7.70;;
23384;SDS011;11865;45.394;10.978;2023-04-06T04:07:52;17.55;;;8.07;;
23384;SDS011;11865;45.394;10.978;2023-04-06T04:10:23;19.05;;;8.15;;
23384;SDS011;11865;45.394;10.978;2023-04-06T04:12:51;17.20;;;8.63;;
23384;SDS011;11865;45.394;10.978;2023-04-06T04:15:19;15.50;;;8.35;;
23384;SDS011;11865;45.394;10.978;2023-04-06T04:17:47;19.13;;;9.30;;
23384;SDS011;11865;45.394;10.978;2023-04-06T04:20:16;24.35;;;9.57;;
23384;SDS011;11865;45.394;10.978;2023-04-06T04:22:44;15.80;;;8.55;;
23384;SDS011;11865;45.394;10.978;2023-04-06T04:25:13;17.90;;;8.32;;
23384;SDS011;11865;45.394;10.978;2023-04-06T04:27:46;14.90;;;9.18;;
23384;SDS011;11865;45.394;10.978;2023-04-06T04:30:14;18.13;;;8.88;;
23384;SDS011;11865;45.394;10.978;2023-04-06T04:32:42;13.63;;;8.38;;
23384;SDS011;11865;45.394;10.978;2023-04-06T04:35:09;14.38;;;8.32;;
23384;SDS011;11865;45.394;10.978;2023-04-06T04:37:40;18.70;;;8.60;;
23384;SDS011;11865;45.394;10.978;2023-04-06T04:40:09;18.52;;;8.77;;
23384;SDS011;11865;45.394;10.978;2023-04-06T04:45:27;13.05;;;7.97;;
23384;SDS011;11865;45.394;10.978;2023-04-06T04:47:56;19.33;;;8.40;;
23384;SDS011;11865;45.394;10.978;2023-04-06T04:50:29;17.85;;;7.90;;
23384;SDS011;11865;45.394;10.978;2023-04-06T04:52:58;18.10;;;7.32;;
23384;SDS011;11865;45.394;10.978;2023-04-06T04:55:27;22.70;;;7.55;;
23384;SDS011;11865;45.394;10.978;2023-04-06T04:57:58;17.48;;;8.65;;
23384;SDS011;11865;45.394;10.978;2023-04-06T05:00:46;16.45;;;7.05;;
23384;SDS011;11865;45.394;10.978;2023-04-06T05:03:22;22.50;;;8.82;;
23384;SDS011;11865;45.394;10.978;2023-04-06T05:06:04;23.00;;;8.93;;
23384;SDS011;11865;45.394;10.978;2023-04-06T05:08:35;21.23;;;9.07;;
23384;SDS011;11865;45.394;10.978;2023-04-06T05:11:03;26.25;;;9.05;;
23384;SDS011;11865;45.394;10.978;2023-04-06T05:13:35;25.30;;;8.82;;
23384;SDS011;11865;45.394;10.978;2023-04-06T05:16:08;24.88;;;8.68;;
23384;SDS011;11865;45.394;10.978;2023-04-06T05:18:36;27.08;;;9.52;;
23384;SDS011;11865;45.394;10.978;2023-04-06T05:21:05;24.27;;;8.73;;
23384;SDS011;11865;45.394;10.978;2023-04-06T05:23:44;21.80;;;9.15;;
23384;SDS011;11865;45.394;10.978;2023-04-06T05:26:12;22.70;;;9.77;;
23384;SDS011;11865;45.394;10.978;2023-04-06T05:28:39;17.55;;;8.65;;
23384;SDS011;11865;45.394;10.978;2023-04-06T05:31:09;13.25;;;7.55;;
23384;SDS011;11865;45.394;10.978;2023-04-06T05:33:44;20.02;;;8.30;;
23384;SDS011;11865;45.394;10.978;2023-04-06T05:36:15;15.23;;;8.52;;
23384;SDS011;11865;45.394;10.978;2023-04-06T05:38:45;14.55;;;8.25;;
23384;SDS011;11865;45.394;10.978;2023-04-06T05:41:22;17.23;;;7.55;;
23384;SDS011;11865;45.394;10.978;2023-04-06T05:43:50;16.98;;;9.13;;
23384;SDS011;11865;45.394;10.978;2023-04-06T05:46:18;27.40;;;9.38;;
23384;SDS011;11865;45.394;10.978;2023-04-06T05:48:46;14.85;;;7.25;;
23384;SDS011;11865;45.394;10.978;2023-04-06T05:51:14;13.77;;;8.30;;
23384;SDS011;11865;45.394;10.978;2023-04-06T05:53:46;17.35;;;7.97;;
23384;SDS011;11865;45.394;10.978;2023-04-06T05:56:14;13.52;;;7.45;;
23384;SDS011;11865;45.394;10.978;2023-04-06T05:58:42;15.45;;;8.45;;
23384;SDS011;11865;45.394;10.978;2023-04-06T06:01:13;20.63;;;7.82;;
23384;SDS011;11865;45.394;10.978;2023-04-06T06:03:44;13.97;;;7.47;;
23384;SDS011;11865;45.394;10.978;2023-04-06T06:06:12;16.92;;;8.55;;
23384;SDS011;11865;45.394;10.978;2023-04-06T06:11:52;17.95;;;7.68;;
23384;SDS011;11865;45.394;10.978;2023-04-06T06:14:24;11.65;;;7.55;;
23384;SDS011;11865;45.394;10.978;2023-04-06T06:16:51;13.45;;;8.07;;
23384;SDS011;11865;45.394;10.978;2023-04-06T06:19:19;10.55;;;7.63;;
23384;SDS011;11865;45.394;10.978;2023-04-06T06:21:49;18.40;;;8.70;;
23384;SDS011;11865;45.394;10.978;2023-04-06T06:24:16;13.57;;;7.40;;
23384;SDS011;11865;45.394;10.978;2023-04-06T06:26:44;17.40;;;7.72;;
23384;SDS011;11865;45.394;10.978;2023-04-06T06:29:13;17.13;;;8.07;;
23384;SDS011;11865;45.394;10.978;2023-04-06T06:31:41;14.90;;;7.65;;
23384;SDS011;11865;45.394;10.978;2023-04-06T06:34:09;15.88;;;7.78;;
23384;SDS011;11865;45.394;10.978;2023-04-06T06:36:37;17.13;;;8.40;;
23384;SDS011;11865;45.394;10.978;2023-04-06T06:39:07;16.27;;;8.77;;
23384;SDS011;11865;45.394;10.978;2023-04-06T06:41:36;16.42;;;8.90;;
23384;SDS011;11865;45.394;10.978;2023-04-06T06:44:05;16.63;;;8.40;;
23384;SDS011;11865;45.394;10.978;2023-04-06T06:46:34;12.13;;;7.50;;
23384;SDS011;11865;45.394;10.978;2023-04-06T06:49:02;12.70;;;7.47;;
23384;SDS011;11865;45.394;10.978;2023-04-06T06:51:30;13.38;;;7.78;;
23384;SDS011;11865;45.394;10.978;2023-04-06T06:53:57;13.73;;;7.68;;
23384;SDS011;11865;45.394;10.978;2023-04-06T06:56:25;15.27;;;7.20;;
23384;SDS011;11865;45.394;10.978;2023-04-06T06:58:54;22.08;;;9.23;;
23384;SDS011;11865;45.394;10.978;2023-04-06T07:01:22;14.60;;;8.27;;
23384;SDS011;11865;45.394;10.978;2023-04-06T07:03:50;15.95;;;9.18;;
23384;SDS011;11865;45.394;10.978;2023-04-06T07:06:17;17.88;;;9.68;;
23384;SDS011;11865;45.394;10.978;2023-04-06T07:08:45;16.67;;;9.57;;
23384;SDS011;11865;45.394;10.978;2023-04-06T07:11:13;19.23;;;9.00;;
23384;SDS011;11865;45.394;10.978;2023-04-06T07:13:40;16.50;;;9.65;;
23384;SDS011;11865;45.394;10.978;2023-04-06T07:16:08;19.30;;;8.98;;
23384;SDS011;11865;45.394;10.978;2023-04-06T07:18:37;13.68;;;9.30;;
23384;SDS011;11865;45.394;10.978;2023-04-06T07:21:04;11.68;;;8.40;;
23384;SDS011;11865;45.394;10.978;2023-04-06T07:23:32;14.60;;;8.55;;
23384;SDS011;11865;45.394;10.978;2023-04-06T07:25:59;11.88;;;7.63;;
23384;SDS011;11865;45.394;10.978;2023-04-06T07:28:27;11.13;;;7.28;;
23384;SDS011;11865;45.394;10.978;2023-04-06T07:30:55;15.35;;;7.25;;
23384;SDS011;11865;45.394;10.978;2023-04-06T07:33:23;15.52;;;8.63;;
23384;SDS011;11865;45.394;10.978;2023-04-06T07:35:50;18.73;;;8.30;;
23384;SDS011;11865;45.394;10.978;2023-04-06T07:38:19;12.38;;;7.78;;
23384;SDS011;11865;45.394;10.978;2023-04-06T07:40:46;15.43;;;7.95;;
23384;SDS011;11865;45.394;10.978;2023-04-06T07:43:14;13.20;;;7.88;;
23384;SDS011;11865;45.394;10.978;2023-04-06T07:45:42;13.43;;;7.57;;
23384;SDS011;11865;45.394;10.978;2023-04-06T07:48:10;16.27;;;8.27;;
23384;SDS011;11865;45.394;10.978;2023-04-06T07:50:39;11.95;;;7.35;;
23384;SDS011;11865;45.394;10.978;2023-04-06T07:53:08;17.00;;;7.55;;
23384;SDS011;11865;45.394;10.978;2023-04-06T07:55:37;12.60;;;7.43;;
23384;SDS011;11865;45.394;10.978;2023-04-06T07:58:05;11.85;;;7.55;;
23384;SDS011;11865;45.394;10.978;2023-04-06T08:00:32;13.25;;;7.65;;
23384;SDS011;11865;45.394;10.978;2023-04-06T08:03:00;12.65;;;8.02;;
23384;SDS011;11865;45.394;10.978;2023-04-06T08:05:27;11.57;;;7.13;;
23384;SDS011;11865;45.394;10.978;2023-04-06T08:07:55;11.20;;;7.20;;
23384;SDS011;11865;45.394;10.978;2023-04-06T08:10:22;9.52;;;7.20;;
23384;SDS011;11865;45.394;10.978;2023-04-06T08:12:50;11.05;;;6.95;;
23384;SDS011;11865;45.394;10.978;2023-04-06T08:15:18;14.50;;;7.80;;
23384;SDS011;11865;45.394;10.978;2023-04-06T08:17:46;13.65;;;7.55;;
23384;SDS011;11865;45.394;10.978;2023-04-06T08:20:14;11.88;;;7.20;;
23384;SDS011;11865;45.394;10.978;2023-04-06T08:22:41;16.75;;;7.28;;
23384;SDS011;11865;45.394;10.978;2023-04-06T08:25:09;11.55;;;7.40;;
23384;SDS011;11865;45.394;10.978;2023-04-06T08:27:36;9.40;;;7.35;;
23384;SDS011;11865;45.394;10.978;2023-04-06T08:30:04;11.65;;;7.18;;
23384;SDS011;11865;45.394;10.978;2023-04-06T08:32:32;13.52;;;8.27;;
23384;SDS011;11865;45.394;10.978;2023-04-06T08:35:00;12.88;;;7.18;;
23384;SDS011;11865;45.394;10.978;2023-04-06T08:37:27;14.02;;;7.32;;
23384;SDS011;11865;45.394;10.978;2023-04-06T08:39:57;15.63;;;8.13;;
23384;SDS011;11865;45.394;10.978;2023-04-06T08:42:25;13.18;;;7.00;;
23384;SDS011;11865;45.394;10.978;2023-04-06T08:44:55;19.92;;;7.55;;
23384;SDS011;11865;45.394;10.978;2023-04-06T08:47:22;15.40;;;7.88;;
23384;SDS011;11865;45.394;10.978;2023-04-06T08:49:51;11.50;;;7.30;;
23384;SDS011;11865;45.394;10.978;2023-04-06T08:52:19;10.07;;;6.65;;
23384;SDS011;11865;45.394;10.978;2023-04-06T08:54:47;10.82;;;7.22;;
23384;SDS011;11865;45.394;10.978;2023-04-06T08:57:15;12.23;;;7.68;;
23384;SDS011;11865;45.394;10.978;2023-04-06T08:59:43;10.27;;;7.13;;
23384;SDS011;11865;45.394;10.978;2023-04-06T09:02:14;13.23;;;7.43;;
23384;SDS011;11865;45.394;10.978;2023-04-06T09:04:48;11.25;;;7.25;;
23384;SDS011;11865;45.394;10.978;2023-04-06T09:07:19;10.63;;;6.03;;
23384;SDS011;11865;45.394;10.978;2023-04-06T09:09:47;14.27;;;6.78;;
23384;SDS011;11865;45.394;10.978;2023-04-06T09:12:25;13.07;;;6.68;;
23384;SDS011;11865;45.394;10.978;2023-04-06T09:14:53;7.93;;;5.90;;
23384;SDS011;11865;45.394;10.978;2023-04-06T09:17:23;10.85;;;6.15;;
23384;SDS011;11865;45.394;10.978;2023-04-06T09:19:53;11.10;;;7.20;;
23384;SDS011;11865;45.394;10.978;2023-04-06T09:22:20;14.15;;;6.57;;
23384;SDS011;11865;45.394;10.978;2023-04-06T09:24:50;10.90;;;6.22;;
23384;SDS011;11865;45.394;10.978;2023-04-06T09:27:34;13.80;;;6.95;;
23384;SDS011;11865;45.394;10.978;2023-04-06T09:30:07;10.77;;;5.88;;
23384;SDS011;11865;45.394;10.978;2023-04-06T09:32:44;8.27;;;5.90;;
23384;SDS011;11865;45.394;10.978;2023-04-06T09:35:13;8.68;;;5.63;;
23384;SDS011;11865;45.394;10.978;2023-04-06T09:37:42;9.75;;;5.65;;
23384;SDS011;11865;45.394;10.978;2023-04-06T09:40:10;9.63;;;6.00;;
23384;SDS011;11865;45.394;10.978;2023-04-06T09:42:40;14.35;;;6.95;;
23384;SDS011;11865;45.394;10.978;2023-04-06T09:45:08;10.13;;;6.30;;
23384;SDS011;11865;45.394;10.978;2023-04-06T09:47:37;10.52;;;6.30;;
23384;SDS011;11865;45.394;10.978;2023-04-06T09:50:07;10.95;;;5.82;;
23384;SDS011;11865;45.394;10.978;2023-04-06T09:52:48;10.73;;;6.03;;
23384;SDS011;11865;45.394;10.978;2023-04-06T09:55:20;11.97;;;6.10;;
23384;SDS011;11865;45.394;10.978;2023-04-06T10:00:57;11.95;;;6.60;;
23384;SDS011;11865;45.394;10.978;2023-04-06T10:03:41;10.23;;;6.25;;
23384;SDS011;11865;45.394;10.978;2023-04-06T10:06:19;9.60;;;6.18;;
23384;SDS011;11865;45.394;10.978;2023-04-06T10:08:49;10.68;;;6.35;;
23384;SDS011;11865;45.394;10.978;2023-04-06T10:11:18;8.95;;;5.85;;
23384;SDS011;11865;45.394;10.978;2023-04-06T10:13:46;8.38;;;6.30;;
23384;SDS011;11865;45.394;10.978;2023-04-06T10:16:15;11.30;;;6.28;;
23384;SDS011;11865;45.394;10.978;2023-04-06T10:18:45;10.65;;;6.43;;
23384;SDS011;11865;45.394;10.978;2023-04-06T10:21:19;9.55;;;7.22;;
23384;SDS011;11865;45.394;10.978;2023-04-06T10:23:59;15.43;;;6.90;;
23384;SDS011;11865;45.394;10.978;2023-04-06T10:26:28;11.20;;;6.22;;
23384;SDS011;11865;45.394;10.978;2023-04-06T10:29:01;12.15;;;6.20;;
23384;SDS011;11865;45.394;10.978;2023-04-06T10:31:32;13.07;;;7.38;;
23384;SDS011;11865;45.394;10.978;2023-04-06T10:34:00;8.40;;;6.90;;
23384;SDS011;11865;45.394;10.978;2023-04-06T10:36:33;10.27;;;7.28;;
23384;SDS011;11865;45.394;10.978;2023-04-06T10:41:34;10.30;;;6.85;;
23384;SDS011;11865;45.394;10.978;2023-04-06T10:44:17;15.93;;;7.78;;
23384;SDS011;11865;45.394;10.978;2023-04-06T10:46:55;14.02;;;8.45;;
23384;SDS011;11865;45.394;10.978;2023-04-06T10:49:24;10.63;;;7.95;;
23384;SDS011;11865;45.394;10.978;2023-04-06T10:51:53;10.88;;;7.13;;
23384;SDS011;11865;45.394;10.978;2023-04-06T10:54:23;20.77;;;8.23;;
23384;SDS011;11865;45.394;10.978;2023-04-06T10:56:52;12.55;;;7.75;;
23384;SDS011;11865;45.394;10.978;2023-04-06T10:59:20;12.27;;;8.02;;
23384;SDS011;11865;45.394;10.978;2023-04-06T11:01:48;12.77;;;7.90;;
23384;SDS011;11865;45.394;10.978;2023-04-06T11:04:17;11.88;;;7.95;;
23384;SDS011;11865;45.394;10.978;2023-04-06T11:06:47;16.85;;;8.88;;
23384;SDS011;11865;45.394;10.978;2023-04-06T11:09:34;13.23;;;8.57;;
23384;SDS011;11865;45.394;10.978;2023-04-06T11:12:03;12.13;;;8.15;;
23384;SDS011;11865;45.394;10.978;2023-04-06T11:14:31;14.05;;;8.07;;
23384;SDS011;11865;45.394;10.978;2023-04-06T11:16:59;11.65;;;7.25;;
23384;SDS011;11865;45.394;10.978;2023-04-06T11:19:26;13.60;;;8.35;;
23384;SDS011;11865;45.394;10.978;2023-04-06T11:21:54;11.75;;;8.13;;
23384;SDS011;11865;45.394;10.978;2023-04-06T11:24:24;17.80;;;9.30;;
23384;SDS011;11865;45.394;10.978;2023-04-06T11:26:55;13.77;;;8.57;;
23384;SDS011;11865;45.394;10.978;2023-04-06T11:29:28;14.38;;;8.50;;
23384;SDS011;11865;45.394;10.978;2023-04-06T11:32:02;11.23;;;8.35;;
23384;SDS011;11865;45.394;10.978;2023-04-06T11:34:32;12.43;;;8.65;;
23384;SDS011;11865;45.394;10.978;2023-04-06T11:37:07;21.20;;;9.05;;
23384;SDS011;11865;45.394;10.978;2023-04-06T11:39:37;14.02;;;9.15;;
23384;SDS011;11865;45.394;10.978;2023-04-06T11:42:20;15.70;;;9.00;;
23384;SDS011;11865;45.394;10.978;2023-04-06T11:44:50;14.25;;;8.90;;
23384;SDS011;11865;45.394;10.978;2023-04-06T11:47:19;17.13;;;9.60;;
23384;SDS011;11865;45.394;10.978;2023-04-06T11:49:53;17.90;;;9.45;;
23384;SDS011;11865;45.394;10.978;2023-04-06T11:52:24;14.30;;;9.25;;
23384;SDS011;11865;45.394;10.978;2023-04-06T11:54:54;15.27;;;9.23;;
23384;SDS011;11865;45.394;10.978;2023-04-06T11:57:23;15.00;;;9.10;;
23384;SDS011;11865;45.394;10.978;2023-04-06T11:59:52;16.85;;;9.38;;
23384;SDS011;11865;45.394;10.978;2023-04-06T12:02:20;12.98;;;8.27;;
23384;SDS011;11865;45.394;10.978;2023-04-06T12:04:48;13.68;;;9.38;;
23384;SDS011;11865;45.394;10.978;2023-04-06T12:07:16;11.95;;;8.88;;
23384;SDS011;11865;45.394;10.978;2023-04-06T12:09:43;15.02;;;9.90;;
23384;SDS011;11865;45.394;10.978;2023-04-06T12:12:11;18.13;;;10.27;;
23384;SDS011;11865;45.394;10.978;2023-04-06T12:14:38;14.68;;;9.85;;
23384;SDS011;11865;45.394;10.978;2023-04-06T12:17:06;11.98;;;8.90;;
23384;SDS011;11865;45.394;10.978;2023-04-06T12:19:34;15.88;;;9.98;;
23384;SDS011;11865;45.394;10.978;2023-04-06T12:22:02;13.93;;;9.38;;
23384;SDS011;11865;45.394;10.978;2023-04-06T12:24:29;13.48;;;9.82;;
23384;SDS011;11865;45.394;10.978;2023-04-06T12:26:57;14.50;;;9.82;;
23384;SDS011;11865;45.394;10.978;2023-04-06T12:29:35;15.10;;;9.82;;
23384;SDS011;11865;45.394;10.978;2023-04-06T12:32:03;20.17;;;10.43;;
23384;SDS011;11865;45.394;10.978;2023-04-06T12:34:31;17.25;;;10.13;;
23384;SDS011;11865;45.394;10.978;2023-04-06T12:36:59;16.08;;;10.13;;
23384;SDS011;11865;45.394;10.978;2023-04-06T12:39:27;14.82;;;9.90;;
23384;SDS011;11865;45.394;10.978;2023-04-06T12:41:54;14.85;;;9.32;;
23384;SDS011;11865;45.394;10.978;2023-04-06T12:44:23;15.88;;;10.23;;
23384;SDS011;11865;45.394;10.978;2023-04-06T12:46:52;17.85;;;10.02;;
23384;SDS011;11865;45.394;10.978;2023-04-06T12:49:20;16.05;;;10.57;;
23384;SDS011;11865;45.394;10.978;2023-04-06T12:51:48;14.40;;;9.77;;
23384;SDS011;11865;45.394;10.978;2023-04-06T12:54:16;15.75;;;10.27;;
23384;SDS011;11865;45.394;10.978;2023-04-06T12:56:44;16.17;;;10.20;;
23384;SDS011;11865;45.394;10.978;2023-04-06T12:59:12;16.70;;;10.60;;
23384;SDS011;11865;45.394;10.978;2023-04-06T13:01:40;15.30;;;10.13;;
23384;SDS011;11865;45.394;10.978;2023-04-06T13:04:07;18.70;;;10.38;;
23384;SDS011;11865;45.394;10.978;2023-04-06T13:06:35;14.18;;;9.88;;
23384;SDS011;11865;45.394;10.978;2023-04-06T13:09:02;19.45;;;10.05;;
23384;SDS011;11865;45.394;10.978;2023-04-06T13:11:32;14.95;;;10.10;;
23384;SDS011;11865;45.394;10.978;2023-04-06T13:13:59;16.55;;;10.43;;
23384;SDS011;11865;45.394;10.978;2023-04-06T13:16:27;16.05;;;9.60;;
23384;SDS011;11865;45.394;10.978;2023-04-06T13:18:54;16.05;;;10.00;;
23384;SDS011;11865;45.394;10.978;2023-04-06T13:21:22;14.45;;;10.18;;
23384;SDS011;11865;45.394;10.978;2023-04-06T13:23:50;13.20;;;9.63;;
23384;SDS011;11865;45.394;10.978;2023-04-06T13:26:17;13.98;;;9.98;;
23384;SDS011;11865;45.394;10.978;2023-04-06T13:28:45;14.43;;;9.95;;
23384;SDS011;11865;45.394;10.978;2023-04-06T13:31:12;15.52;;;10.70;;
23384;SDS011;11865;45.394;10.978;2023-04-06T13:33:40;16.42;;;9.82;;
23384;SDS011;11865;45.394;10.978;2023-04-06T13:36:07;12.98;;;9.93;;
23384;SDS011;11865;45.394;10.978;2023-04-06T13:38:35;16.40;;;10.30;;
23384;SDS011;11865;45.394;10.978;2023-04-06T13:41:05;18.15;;;10.18;;
23384;SDS011;11865;45.394;10.978;2023-04-06T13:43:33;14.50;;;9.30;;
23384;SDS011;11865;45.394;10.978;2023-04-06T13:46:00;13.88;;;9.63;;
23384;SDS011;11865;45.394;10.978;2023-04-06T13:48:28;16.23;;;10.30;;
23384;SDS011;11865;45.394;10.978;2023-04-06T13:50:57;16.60;;;11.00;;
23384;SDS011;11865;45.394;10.978;2023-04-06T13:53:24;17.40;;;10.02;;
23384;SDS011;11865;45.394;10.978;2023-04-06T13:55:52;13.40;;;9.40;;
23384;SDS011;11865;45.394;10.978;2023-04-06T13:58:21;17.20;;;9.88;;
23384;SDS011;11865;45.394;10.978;2023-04-06T14:00:48;18.58;;;11.07;;
23384;SDS011;11865;45.394;10.978;2023-04-06T14:03:16;21.50;;;10.75;;
23384;SDS011;11865;45.394;10.978;2023-04-06T14:05:44;15.88;;;10.05;;
23384;SDS011;11865;45.394;10.978;2023-04-06T14:08:12;14.40;;;9.80;;
23384;SDS011;11865;45.394;10.978;2023-04-06T14:10:40;19.10;;;9.95;;
23384;SDS011;11865;45.394;10.978;2023-04-06T14:13:09;16.08;;;9.32;;
23384;SDS011;11865;45.394;10.978;2023-04-06T14:15:37;16.13;;;9.95;;
23384;SDS011;11865;45.394;10.978;2023-04-06T14:18:04;16.60;;;9.63;;
23384;SDS011;11865;45.394;10.978;2023-04-06T14:20:33;15.63;;;9.73;;
23384;SDS011;11865;45.394;10.978;2023-04-06T14:23:01;17.55;;;9.20;;
23384;SDS011;11865;45.394;10.978;2023-04-06T14:25:28;15.15;;;9.20;;
23384;SDS011;11865;45.394;10.978;2023-04-06T14:28:01;19.55;;;9.73;;
23384;SDS011;11865;45.394;10.978;2023-04-06T14:30:30;16.80;;;9.70;;
23384;SDS011;11865;45.394;10.978;2023-04-06T14:32:57;13.95;;;9.77;;
23384;SDS011;11865;45.394;10.978;2023-04-06T14:35:25;14.32;;;9.75;;
23384;SDS011;11865;45.394;10.978;2023-04-06T14:37:55;18.10;;;10.27;;
23384;SDS011;11865;45.394;10.978;2023-04-06T14:40:25;15.10;;;9.70;;
23384;SDS011;11865;45.394;10.978;2023-04-06T14:42:52;15.50;;;9.52;;
23384;SDS011;11865;45.394;10.978;2023-04-06T14:45:20;12.95;;;9.05;;
23384;SDS011;11865;45.394;10.978;2023-04-06T14:47:48;17.10;;;9.40;;
23384;SDS011;11865;45.394;10.978;2023-04-06T14:50:16;18.27;;;9.52;;